Time;durP1;ratioP1;P1;durP2;ratioP2;P2;SDS_P1;SDS_P2;PMS_P1;PMS_P2;Temp;Humidity;BMP_temperature;BMP_pressure;BME280_temperature;BME280_humidity;BME280_pressure;Samples;Min_cycle;Max_cycle;Signal;HPM_P1;HPM_P2
2021/07/01 00:00:21;;;;;;;26.45;14.02;;;14.40;99.90;;;;;;3597086;40;20166;-78
2021/07/01 00:02:47;;;;;;;31.52;16.02;;;14.40;99.90;;;;;;3597096;40;20604;-79
2021/07/01 00:05:15;;;;;;;29.30;16.48;;;14.40;99.90;;;;;;3596588;40;20307;-78
2021/07/01 00:07:42;;;;;;;29.30;15.38;;;14.40;99.90;;;;;;3594023;39;20626;-80
2021/07/01 00:10:13;;;;;;;25.50;14.30;;;14.40;99.90;;;;;;3589627;39;20047;-79
2021/07/01 00:12:39;;;;;;;26.33;12.40;;;14.40;99.90;;;;;;3590890;39;20048;-79
2021/07/01 00:15:08;;;;;;;30.35;14.07;;;14.40;99.90;;;;;;3600770;39;20073;-79
2021/07/01 00:17:34;;;;;;;23.90;12.82;;;14.30;99.90;;;;;;3607107;39;20038;-79
2021/07/01 00:20:00;;;;;;;22.23;12.60;;;14.30;99.90;;;;;;3606902;39;20043;-79
2021/07/01 00:22:26;;;;;;;24.23;12.48;;;14.30;99.90;;;;;;3606070;39;20495;-79
2021/07/01 00:24:52;;;;;;;27.80;13.25;;;14.30;99.90;;;;;;3593006;39;20040;-80
2021/07/01 00:27:17;;;;;;;30.58;13.30;;;14.30;99.90;;;;;;3597677;39;20040;-80
2021/07/01 00:29:43;;;;;;;22.63;13.27;;;14.30;99.90;;;;;;3597028;39;20145;-81
2021/07/01 00:32:09;;;;;;;26.88;13.77;;;14.30;99.90;;;;;;3606019;39;20062;-80
2021/07/01 00:34:35;;;;;;;31.80;14.40;;;14.30;99.90;;;;;;3605979;39;20043;-80
2021/07/01 00:37:01;;;;;;;25.52;13.68;;;14.30;99.90;;;;;;3606041;39;20051;-80
2021/07/01 00:39:26;;;;;;;29.55;14.45;;;14.20;99.90;;;;;;3601394;39;20063;-80
2021/07/01 00:41:53;;;;;;;40.38;15.43;;;14.20;99.90;;;;;;3590858;39;20124;-80
2021/07/01 00:44:19;;;;;;;26.13;13.45;;;14.20;99.90;;;;;;3594711;39;20052;-81
2021/07/01 00:46:44;;;;;;;31.05;15.38;;;14.20;99.90;;;;;;3586755;40;20044;-81
2021/07/01 00:49:16;;;;;;;27.90;14.73;;;14.20;99.90;;;;;;3586367;40;20051;-81
2021/07/01 00:51:42;;;;;;;26.83;13.88;;;14.20;99.90;;;;;;3591086;39;20603;-81
2021/07/01 00:54:09;;;;;;;39.13;17.00;;;14.20;99.90;;;;;;3606822;39;20043;-81
2021/07/01 00:56:37;;;;;;;30.48;17.02;;;14.20;99.90;;;;;;3605305;39;20087;-81
2021/07/01 00:59:04;;;;;;;33.10;17.92;;;14.20;99.90;;;;;;3587989;39;20052;-80
2021/07/01 01:01:30;;;;;;;27.23;16.10;;;14.20;99.90;;;;;;3587026;39;20311;-80
2021/07/01 01:03:56;;;;;;;37.65;18.25;;;14.20;99.90;;;;;;3586303;39;20339;-80
2021/07/01 01:06:22;;;;;;;32.15;16.60;;;14.20;99.90;;;;;;3586557;40;20106;-81
2021/07/01 01:08:48;;;;;;;33.92;17.20;;;14.20;99.90;;;;;;3593826;39;20040;-80
2021/07/01 01:11:15;;;;;;;33.15;17.15;;;14.20;99.90;;;;;;3586232;40;20053;-81
2021/07/01 01:13:43;;;;;;;36.40;17.42;;;14.20;99.90;;;;;;3592415;39;20452;-81
2021/07/01 01:16:09;;;;;;;34.45;17.40;;;14.20;99.90;;;;;;3596592;39;20145;-82
2021/07/01 01:18:35;;;;;;;37.15;17.52;;;14.10;99.90;;;;;;3577113;40;20036;-81
2021/07/01 01:21:01;;;;;;;41.88;18.08;;;14.20;99.90;;;;;;3585550;40;20050;-81
2021/07/01 01:23:27;;;;;;;35.55;16.92;;;14.10;99.90;;;;;;3585812;40;20084;-81
2021/07/01 01:25:58;;;;;;;40.90;18.67;;;14.20;99.90;;;;;;3586617;40;20052;-81
2021/07/01 01:28:24;;;;;;;40.40;18.13;;;14.10;99.90;;;;;;3587027;40;21049;-81
2021/07/01 01:30:51;;;;;;;37.47;17.92;;;14.10;99.90;;;;;;3587083;39;20126;-81
2021/07/01 01:33:16;;;;;;;39.38;19.55;;;14.20;99.90;;;;;;3604016;39;20048;-81
2021/07/01 01:35:42;;;;;;;51.65;19.38;;;14.10;99.90;;;;;;3594565;40;20101;-80
2021/07/01 01:38:12;;;;;;;50.47;21.23;;;14.20;99.90;;;;;;3595356;40;20044;-80
2021/07/01 01:40:39;;;;;;;43.30;19.63;;;14.20;99.90;;;;;;3602406;39;20249;-80
2021/07/01 01:43:05;;;;;;;37.40;18.05;;;14.20;99.90;;;;;;3596981;39;20059;-80
2021/07/01 01:45:31;;;;;;;56.60;21.55;;;14.20;99.90;;;;;;3597900;39;20166;-80
2021/07/01 01:47:58;;;;;;;46.38;21.27;;;14.20;99.90;;;;;;3606719;39;20036;-80
2021/07/01 01:50:24;;;;;;;50.08;21.73;;;14.20;99.90;;;;;;3597692;39;20788;-80
2021/07/01 01:52:51;;;;;;;55.55;21.52;;;14.20;99.90;;;;;;3586367;39;20033;-81
2021/07/01 01:55:17;;;;;;;40.97;19.75;;;14.20;99.90;;;;;;3586181;40;20055;-80
2021/07/01 01:57:46;;;;;;;45.90;20.48;;;14.20;99.90;;;;;;3595059;39;20039;-80
2021/07/01 02:00:14;;;;;;;42.67;19.20;;;14.20;99.90;;;;;;3599598;39;20044;-80
2021/07/01 02:02:40;;;;;;;54.72;21.85;;;14.20;99.90;;;;;;3600294;39;20050;-81
2021/07/01 02:05:07;;;;;;;44.00;21.30;;;14.20;99.90;;;;;;3605428;39;20593;-80
2021/07/01 02:07:34;;;;;;;55.33;23.08;;;14.30;99.90;;;;;;3585493;40;20048;-80
2021/07/01 02:10:00;;;;;;;43.47;19.55;;;14.30;99.90;;;;;;3585917;40;20370;-81
2021/07/01 02:12:29;;;;;;;37.28;20.10;;;14.30;99.90;;;;;;3588505;39;20065;-81
2021/07/01 02:14:55;;;;;;;41.33;20.92;;;14.30;99.90;;;;;;3599099;39;20056;-81
2021/07/01 02:17:21;;;;;;;56.78;22.45;;;14.30;99.90;;;;;;3597145;39;20257;-80
2021/07/01 02:19:46;;;;;;;48.17;21.05;;;14.40;99.90;;;;;;3605597;39;20527;-81
2021/07/01 02:22:12;;;;;;;41.58;21.30;;;14.30;99.90;;;;;;3605096;39;20133;-81
2021/07/01 02:24:38;;;;;;;43.92;20.52;;;14.30;99.90;;;;;;3605641;39;20043;-80
2021/07/01 02:27:11;;;;;;;52.03;22.75;;;14.40;99.90;;;;;;3605088;39;20040;-80
2021/07/01 02:29:37;;;;;;;45.08;21.35;;;14.40;99.90;;;;;;3604579;39;20046;-79
2021/07/01 02:32:04;;;;;;;51.38;21.83;;;14.40;99.90;;;;;;3601423;39;20048;-79
2021/07/01 02:34:30;;;;;;;39.70;20.25;;;14.40;99.90;;;;;;3605402;39;20276;-79
2021/07/01 02:36:56;;;;;;;48.28;21.58;;;14.40;99.90;;;;;;3606109;39;20053;-79
2021/07/01 02:39:21;;;;;;;49.00;20.90;;;14.40;99.90;;;;;;3593938;39;20067;-78
2021/07/01 02:41:48;;;;;;;42.10;20.23;;;14.40;99.90;;;;;;3605694;39;20121;-79
2021/07/01 02:44:15;;;;;;;48.30;21.90;;;14.40;99.90;;;;;;3605402;39;20211;-78
2021/07/01 02:46:41;;;;;;;57.40;23.50;;;14.40;99.90;;;;;;3604291;39;20060;-78
2021/07/01 02:49:07;;;;;;;44.90;22.83;;;14.40;99.90;;;;;;3605352;39;20043;-79
2021/07/01 02:51:32;;;;;;;60.75;23.90;;;14.50;99.90;;;;;;3604979;39;20216;-78
2021/07/01 02:53:58;;;;;;;52.92;22.08;;;14.50;99.90;;;;;;3601881;39;20039;-79
2021/07/01 02:56:24;;;;;;;57.38;23.35;;;14.50;99.90;;;;;;3605172;39;20124;-80
2021/07/01 02:58:50;;;;;;;41.20;20.02;;;14.50;99.90;;;;;;3604773;39;20040;-80
2021/07/01 03:01:16;;;;;;;51.58;23.35;;;14.50;99.90;;;;;;3604698;39;20043;-80
2021/07/01 03:03:43;;;;;;;69.00;25.08;;;14.50;99.90;;;;;;3603896;39;20039;-81
2021/07/01 03:06:09;;;;;;;50.13;22.88;;;14.50;99.90;;;;;;3604955;39;20324;-81
2021/07/01 03:08:35;;;;;;;46.55;22.40;;;14.50;99.90;;;;;;3605980;39;20238;-81
2021/07/01 03:11:01;;;;;;;52.40;23.88;;;14.50;99.90;;;;;;3603411;39;20066;-81
2021/07/01 03:13:26;;;;;;;57.90;24.20;;;14.50;99.90;;;;;;3598747;39;20040;-82
2021/07/01 03:15:52;;;;;;;60.88;23.60;;;14.50;99.90;;;;;;3597251;39;20417;-80
2021/07/01 03:18:18;;;;;;;63.85;26.58;;;14.50;99.90;;;;;;3595284;39;20336;-81
2021/07/01 03:20:44;;;;;;;51.00;22.10;;;14.50;99.90;;;;;;3599453;39;20682;-80
2021/07/01 03:23:09;;;;;;;50.08;21.67;;;14.60;99.90;;;;;;3605636;39;20043;-81
2021/07/01 03:25:36;;;;;;;50.55;24.02;;;14.60;99.90;;;;;;3605045;39;20326;-79
2021/07/01 03:28:02;;;;;;;54.65;25.40;;;14.60;99.90;;;;;;3604838;39;20149;-80
2021/07/01 03:30:27;;;;;;;44.05;22.23;;;14.60;99.90;;;;;;3602512;39;20043;-81
2021/07/01 03:32:53;;;;;;;61.97;24.30;;;14.60;99.90;;;;;;3607056;39;20087;-80
2021/07/01 03:35:19;;;;;;;54.30;24.02;;;14.60;99.90;;;;;;3607023;39;20050;-79
2021/07/01 03:37:45;;;;;;;69.60;27.02;;;14.60;99.90;;;;;;3598265;39;20040;-80
2021/07/01 03:40:11;;;;;;;62.97;25.48;;;14.70;99.90;;;;;;3604845;39;20128;-80
2021/07/01 03:42:37;;;;;;;54.83;22.45;;;14.60;99.90;;;;;;3582068;40;20035;-80
2021/07/01 03:45:05;;;;;;;61.72;24.63;;;14.70;99.90;;;;;;3597873;39;20346;-80
2021/07/01 03:47:30;;;;;;;60.92;24.70;;;14.70;99.90;;;;;;3607675;39;20362;-80
2021/07/01 03:49:56;;;;;;;51.70;23.40;;;14.70;99.90;;;;;;3597955;39;20040;-80
2021/07/01 03:52:22;;;;;;;69.65;27.05;;;14.70;99.90;;;;;;3599538;39;20035;-81
2021/07/01 03:54:48;;;;;;;57.45;26.33;;;14.70;99.90;;;;;;3597464;39;20048;-79
2021/07/01 03:57:14;;;;;;;59.20;25.75;;;14.80;99.90;;;;;;3598416;39;20047;-80
2021/07/01 03:59:40;;;;;;;59.97;26.98;;;14.80;99.90;;;;;;3607912;39;20080;-80
2021/07/01 04:02:06;;;;;;;69.88;27.85;;;14.80;99.90;;;;;;3598094;39;20233;-81
2021/07/01 04:04:32;;;;;;;57.92;25.27;;;14.80;99.90;;;;;;3606712;39;20104;-81
2021/07/01 04:06:58;;;;;;;64.57;24.65;;;14.80;99.90;;;;;;3589353;39;20060;-80
2021/07/01 04:09:24;;;;;;;56.75;24.70;;;14.90;99.90;;;;;;3607283;39;20303;-81
2021/07/01 04:11:50;;;;;;;62.95;27.58;;;14.90;99.90;;;;;;3603113;39;20257;-83
2021/07/01 04:14:18;;;;;;;55.47;24.85;;;14.90;99.90;;;;;;3600992;39;20052;-81
2021/07/01 04:16:45;;;;;;;55.28;24.60;;;14.90;99.90;;;;;;3606316;39;20333;-80
2021/07/01 04:19:12;;;;;;;58.30;26.10;;;14.90;99.90;;;;;;3606979;39;20132;-81
2021/07/01 04:21:38;;;;;;;71.35;28.60;;;14.90;99.90;;;;;;3607367;39;20129;-80
2021/07/01 04:24:05;;;;;;;60.45;25.80;;;15.00;99.90;;;;;;3607183;39;20063;-80
2021/07/01 04:26:31;;;;;;;58.03;24.20;;;15.00;99.90;;;;;;3603744;39;20044;-80
2021/07/01 04:28:57;;;;;;;51.05;24.02;;;15.00;99.90;;;;;;3606938;39;20046;-81
2021/07/01 04:31:23;;;;;;;60.95;25.05;;;15.00;99.90;;;;;;3600158;39;20040;-80
2021/07/01 04:33:49;;;;;;;68.78;27.67;;;15.00;99.90;;;;;;3596568;39;20044;-80
2021/07/01 04:36:15;;;;;;;61.22;25.80;;;15.00;99.90;;;;;;3587710;40;20036;-81
2021/07/01 04:38:41;;;;;;;52.63;23.25;;;15.00;99.90;;;;;;3596469;39;20376;-81
2021/07/01 04:41:07;;;;;;;64.03;27.80;;;15.10;99.90;;;;;;3601456;39;20051;-81
2021/07/01 04:43:33;;;;;;;62.50;27.65;;;15.00;99.90;;;;;;3596782;39;20042;-80
2021/07/01 04:45:59;;;;;;;65.05;26.42;;;15.10;99.90;;;;;;3596590;39;20060;-80
2021/07/01 04:48:25;;;;;;;70.63;27.20;;;15.10;99.90;;;;;;3597171;39;20050;-81
2021/07/01 04:50:51;;;;;;;55.97;24.83;;;15.10;99.90;;;;;;3600382;39;20032;-80
2021/07/01 04:53:17;;;;;;;61.38;26.15;;;15.10;99.90;;;;;;3607118;39;20354;-82
2021/07/01 04:55:42;;;;;;;57.83;25.35;;;15.10;99.90;;;;;;3607368;39;20032;-81
2021/07/01 04:58:08;;;;;;;63.88;27.02;;;15.10;99.90;;;;;;3587295;39;20176;-81
2021/07/01 05:00:35;;;;;;;58.20;23.77;;;15.10;99.90;;;;;;3605259;39;20043;-81
2021/07/01 05:03:01;;;;;;;50.30;23.45;;;15.10;99.90;;;;;;3596290;39;20036;-81
2021/07/01 05:05:28;;;;;;;46.83;23.67;;;15.10;99.90;;;;;;3605475;39;20070;-81
2021/07/01 05:07:53;;;;;;;77.43;29.45;;;15.20;99.90;;;;;;3600538;39;20044;-81
2021/07/01 05:10:21;;;;;;;59.58;24.85;;;15.20;99.90;;;;;;3585425;39;20036;-81
2021/07/01 05:12:47;;;;;;;58.45;25.77;;;15.20;99.90;;;;;;3602516;39;20042;-83
2021/07/01 05:15:13;;;;;;;53.75;25.13;;;15.20;99.90;;;;;;3602864;39;20051;-81
2021/07/01 05:17:39;;;;;;;57.08;25.23;;;15.20;99.90;;;;;;3595580;39;20059;-84
2021/07/01 05:20:06;;;;;;;64.90;24.73;;;15.20;99.90;;;;;;3594568;39;20035;-80
2021/07/01 05:22:32;;;;;;;62.88;24.98;;;15.20;99.90;;;;;;3596192;39;20047;-79
2021/07/01 05:24:58;;;;;;;78.13;27.45;;;15.20;99.90;;;;;;3604657;39;20046;-80
2021/07/01 05:27:24;;;;;;;62.35;24.88;;;15.20;99.90;;;;;;3594136;39;20035;-78
2021/07/01 05:29:51;;;;;;;65.95;25.45;;;15.30;99.90;;;;;;3598340;39;20414;-79
2021/07/01 05:32:18;;;;;;;61.00;24.52;;;15.20;99.90;;;;;;3599560;39;20487;-79
2021/07/01 05:34:44;;;;;;;61.85;23.67;;;15.20;99.90;;;;;;3604348;39;20054;-79
2021/07/01 05:37:10;;;;;;;62.65;26.13;;;15.30;99.90;;;;;;3599293;39;20042;-80
2021/07/01 05:39:37;;;;;;;62.67;24.85;;;15.30;99.90;;;;;;3600610;39;20136;-80
2021/07/01 05:42:03;;;;;;;55.72;23.35;;;15.30;99.90;;;;;;3604387;39;20228;-80
2021/07/01 05:44:29;;;;;;;53.72;25.08;;;15.30;99.90;;;;;;3606139;39;20043;-80
2021/07/01 05:46:55;;;;;;;56.15;25.83;;;15.30;99.90;;;;;;3605654;39;20040;-82
2021/07/01 05:49:21;;;;;;;62.28;25.15;;;15.30;99.90;;;;;;3593832;39;20349;-80
2021/07/01 05:51:49;;;;;;;60.70;27.80;;;15.30;99.90;;;;;;3602466;39;20151;-81
2021/07/01 05:54:28;;;;;;;70.40;26.63;;;15.30;99.90;;;;;;3591861;39;20044;-80
2021/07/01 05:56:57;;;;;;;60.47;25.38;;;15.30;99.90;;;;;;3603928;39;20051;-80
2021/07/01 05:59:24;;;;;;;53.25;23.83;;;15.40;99.90;;;;;;3600502;39;20040;-80
2021/07/01 06:01:50;;;;;;;50.22;25.38;;;15.40;99.90;;;;;;3595671;39;20051;-81
2021/07/01 06:04:17;;;;;;;62.97;26.85;;;15.40;99.90;;;;;;3603899;39;20055;-81
2021/07/01 06:06:48;;;;;;;61.95;26.20;;;15.40;99.90;;;;;;3604328;39;20076;-81
2021/07/01 06:09:15;;;;;;;53.05;25.45;;;15.40;99.90;;;;;;3603190;39;20274;-81
2021/07/01 06:11:42;;;;;;;61.42;29.13;;;15.50;99.90;;;;;;3605498;39;20038;-80
2021/07/01 06:14:08;;;;;;;68.55;29.08;;;15.50;99.90;;;;;;3601692;39;20047;-80
2021/07/01 06:16:35;;;;;;;70.28;26.80;;;15.50;99.90;;;;;;3598937;39;20345;-81
2021/07/01 06:19:03;;;;;;;70.05;28.92;;;15.50;99.90;;;;;;3603615;39;20032;-80
2021/07/01 06:21:31;;;;;;;81.90;31.10;;;15.50;99.90;;;;;;3602021;39;20139;-80
2021/07/01 06:23:57;;;;;;;75.55;29.80;;;15.50;99.90;;;;;;3604577;39;20695;-81
2021/07/01 06:26:26;;;;;;;86.15;32.35;;;15.60;99.90;;;;;;3599583;39;20046;-80
2021/07/01 06:28:53;;;;;;;72.32;28.92;;;15.70;99.90;;;;;;3601043;39;20036;-81
2021/07/01 06:31:19;;;;;;;65.13;30.05;;;15.70;99.90;;;;;;3600774;39;20372;-81
2021/07/01 06:33:46;;;;;;;84.90;33.38;;;15.80;99.90;;;;;;3601528;39;20108;-80
2021/07/01 06:36:13;;;;;;;66.10;29.48;;;15.80;99.90;;;;;;3604556;39;20043;-80
2021/07/01 06:38:55;;;;;;;62.75;28.05;;;15.90;99.90;;;;;;3602819;39;20039;-81
2021/07/01 06:41:22;;;;;;;54.47;26.42;;;16.00;99.90;;;;;;3604901;39;20379;-81
2021/07/01 06:43:49;;;;;;;58.13;26.15;;;16.00;99.90;;;;;;3596491;39;20047;-81
2021/07/01 06:46:19;;;;;;;76.22;30.45;;;16.00;99.90;;;;;;3601476;39;20405;-81
2021/07/01 06:48:51;;;;;;;67.45;27.45;;;16.10;99.90;;;;;;3600304;39;20051;-81
2021/07/01 06:51:18;;;;;;;54.55;28.23;;;16.10;99.90;;;;;;3601774;39;20039;-80
2021/07/01 06:53:45;;;;;;;55.88;28.38;;;16.20;99.90;;;;;;3600080;39;20039;-81
2021/07/01 06:56:12;;;;;;;59.35;28.00;;;16.20;99.90;;;;;;3603321;39;20127;-81
2021/07/01 06:58:41;;;;;;;80.75;33.17;;;16.20;99.90;;;;;;3601356;39;20036;-81
2021/07/01 07:01:07;;;;;;;63.90;28.70;;;16.20;99.90;;;;;;3604104;39;20152;-80
2021/07/01 07:03:34;;;;;;;61.35;27.77;;;16.30;99.90;;;;;;3604196;39;20250;-81
2021/07/01 07:06:03;;;;;;;74.25;32.75;;;16.40;99.90;;;;;;3605037;39;20040;-80
2021/07/01 07:08:30;;;;;;;73.38;30.23;;;16.50;99.90;;;;;;3607359;39;20123;-80
2021/07/01 07:10:57;;;;;;;67.53;28.98;;;16.50;99.90;;;;;;3600885;39;20048;-80
2021/07/01 07:13:26;;;;;;;55.10;26.17;;;16.50;99.90;;;;;;3604093;39;20050;-80
2021/07/01 07:15:57;;;;;;;58.53;28.80;;;16.60;99.90;;;;;;3603531;39;20123;-81
2021/07/01 07:18:23;;;;;;;67.07;30.98;;;16.70;99.90;;;;;;3605187;39;20346;-80
2021/07/01 07:21:02;;;;;;;62.58;28.65;;;16.60;99.90;;;;;;3605730;39;20047;-80
2021/07/01 07:23:33;;;;;;;63.83;27.75;;;16.70;99.90;;;;;;3599891;39;20042;-80
2021/07/01 07:26:04;;;;;;;60.25;28.33;;;16.80;99.90;;;;;;3603869;39;20043;-80
2021/07/01 07:28:31;;;;;;;61.22;30.23;;;16.90;99.90;;;;;;3600759;39;20040;-81
2021/07/01 07:30:57;;;;;;;54.72;27.05;;;16.90;99.90;;;;;;3603263;39;20055;-81
2021/07/01 07:33:26;;;;;;;66.35;30.48;;;16.90;99.90;;;;;;3604782;39;20055;-80
2021/07/01 07:35:53;;;;;;;56.92;27.58;;;17.00;99.90;;;;;;3605674;39;20457;-81
2021/07/01 07:38:20;;;;;;;53.03;27.00;;;17.00;99.90;;;;;;3606030;39;20046;-80
2021/07/01 07:40:50;;;;;;;57.13;28.35;;;17.10;99.90;;;;;;3605197;39;20091;-80
2021/07/01 07:43:19;;;;;;;45.17;23.63;;;17.10;99.90;;;;;;3603522;39;20642;-80
2021/07/01 07:45:50;;;;;;;44.25;23.35;;;17.20;99.90;;;;;;3601353;39;20059;-81
2021/07/01 07:48:16;;;;;;;48.70;24.60;;;17.30;99.90;;;;;;3604716;39;20038;-80
2021/07/01 07:50:52;;;;;;;42.58;23.13;;;17.30;99.90;;;;;;3602009;39;20056;-80
2021/07/01 07:53:23;;;;;;;54.53;25.88;;;17.30;99.90;;;;;;3605249;39;20044;-80
2021/07/01 07:55:52;;;;;;;48.20;23.10;;;17.40;99.90;;;;;;3603730;39;20035;-81
2021/07/01 07:58:20;;;;;;;44.40;24.20;;;17.30;99.90;;;;;;3604629;39;20072;-80
2021/07/01 08:00:46;;;;;;;40.00;22.15;;;17.40;99.90;;;;;;3605154;39;20035;-80
2021/07/01 08:03:13;;;;;;;41.80;22.35;;;17.30;99.90;;;;;;3606869;39;20047;-79
2021/07/01 08:05:40;;;;;;;41.03;21.23;;;17.30;99.90;;;;;;3601597;39;20047;-81
2021/07/01 08:08:11;;;;;;;49.65;24.27;;;17.40;99.90;;;;;;3602321;39;20045;-80
2021/07/01 08:10:40;;;;;;;42.95;23.95;;;17.40;99.90;;;;;;3603690;39;20031;-80
2021/07/01 08:13:07;;;;;;;46.33;20.60;;;17.40;99.90;;;;;;3603062;39;20046;-80
2021/07/01 08:15:35;;;;;;;41.13;22.65;;;17.40;99.90;;;;;;3605376;39;20043;-80
2021/07/01 08:18:02;;;;;;;36.03;20.95;;;17.50;99.90;;;;;;3602262;39;20129;-80
2021/07/01 08:20:29;;;;;;;32.78;19.10;;;17.50;99.90;;;;;;3605303;39;20564;-80
2021/07/01 08:22:58;;;;;;;47.38;25.50;;;17.60;99.90;;;;;;3605130;39;20047;-80
2021/07/01 08:25:25;;;;;;;42.15;23.67;;;17.60;99.90;;;;;;3605038;39;20590;-80
2021/07/01 08:27:53;;;;;;;46.30;22.55;;;17.70;99.90;;;;;;3605544;39;20055;-80
2021/07/01 08:30:22;;;;;;;45.85;23.17;;;17.80;99.90;;;;;;3603287;39;20051;-80
2021/07/01 08:32:53;;;;;;;26.38;17.40;;;17.80;99.90;;;;;;3606336;39;20036;-80
2021/07/01 08:35:22;;;;;;;43.00;22.17;;;17.90;99.90;;;;;;3606015;39;20054;-80
2021/07/01 08:37:51;;;;;;;38.03;21.05;;;18.00;99.90;;;;;;3606968;39;20593;-80
2021/07/01 08:40:18;;;;;;;34.72;20.70;;;18.00;99.90;;;;;;3601472;39;20036;-80
2021/07/01 08:42:45;;;;;;;36.70;20.15;;;18.10;99.90;;;;;;3602787;39;20043;-80
2021/07/01 08:45:15;;;;;;;35.00;17.75;;;18.10;99.90;;;;;;3603359;39;20051;-81
2021/07/01 08:47:43;;;;;;;33.92;20.73;;;18.20;99.90;;;;;;3604656;39;20340;-80
2021/07/01 08:50:14;;;;;;;32.75;20.60;;;18.30;99.90;;;;;;3603780;39;20419;-80
2021/07/01 08:53:03;;;;;;;38.83;19.40;;;18.30;99.90;;;;;;3605529;39;20654;-80
2021/07/01 08:55:30;;;;;;;35.08;18.90;;;18.40;99.90;;;;;;3605143;39;20079;-80
2021/07/01 08:57:58;;;;;;;34.83;19.80;;;18.50;99.90;;;;;;3603120;39;20039;-80
2021/07/01 09:00:26;;;;;;;33.90;19.83;;;18.60;99.90;;;;;;3606188;39;20043;-79
2021/07/01 09:03:07;;;;;;;38.53;20.17;;;18.60;99.90;;;;;;3600464;39;20051;-80
2021/07/01 09:05:35;;;;;;;34.10;19.05;;;18.70;99.90;;;;;;3603219;39;20097;-80
2021/07/01 09:08:07;;;;;;;28.65;19.02;;;18.70;99.90;;;;;;3601193;39;20048;-80
2021/07/01 09:10:34;;;;;;;28.38;18.27;;;18.70;99.90;;;;;;3601714;39;20035;-80
2021/07/01 09:13:03;;;;;;;27.08;17.25;;;18.70;99.90;;;;;;3601896;39;20136;-80
2021/07/01 09:15:31;;;;;;;26.25;17.80;;;18.70;99.90;;;;;;3602254;39;20035;-80
2021/07/01 09:17:59;;;;;;;28.70;18.42;;;18.70;99.90;;;;;;3604460;39;20078;-80
2021/07/01 09:20:33;;;;;;;23.95;17.58;;;18.70;99.90;;;;;;3606490;39;20047;-81
2021/07/01 09:22:59;;;;;;;27.77;17.98;;;18.80;99.90;;;;;;3606021;39;20067;-81
2021/07/01 09:25:25;;;;;;;23.98;18.73;;;18.90;99.90;;;;;;3602392;39;20031;-81
2021/07/01 09:27:53;;;;;;;25.20;17.85;;;19.10;99.90;;;;;;3605835;39;20055;-82
2021/07/01 09:30:25;;;;;;;30.98;18.48;;;19.20;99.90;;;;;;3602976;39;20322;-81
2021/07/01 09:32:57;;;;;;;27.70;17.38;;;19.30;99.90;;;;;;3606390;39;20136;-81
2021/07/01 09:35:30;;;;;;;30.35;18.27;;;19.40;99.90;;;;;;3600372;39;20166;-80
2021/07/01 09:38:00;;;;;;;30.60;19.35;;;19.50;99.90;;;;;;3597109;39;20311;-80
2021/07/01 09:40:26;;;;;;;22.60;16.80;;;19.50;99.90;;;;;;3600780;39;20040;-81
2021/07/01 09:42:55;;;;;;;23.48;16.27;;;19.50;99.90;;;;;;3603980;39;20314;-81
2021/07/01 09:45:23;;;;;;;26.25;18.42;;;19.50;99.90;;;;;;3603441;39;20323;-83
2021/07/01 09:48:08;;;;;;;20.75;18.30;;;19.50;99.90;;;;;;3604541;39;20306;-83
2021/07/01 09:50:45;;;;;;;22.27;17.25;;;19.50;99.90;;;;;;3604799;39;20043;-82
2021/07/01 09:53:23;;;;;;;22.48;16.92;;;19.40;99.90;;;;;;3604852;39;20165;-82
2021/07/01 09:55:52;;;;;;;22.35;18.00;;;19.40;99.90;;;;;;3605462;39;20326;-82
2021/07/01 09:58:21;;;;;;;20.63;16.30;;;19.30;99.90;;;;;;3601869;39;20040;-81
2021/07/01 10:00:52;;;;;;;19.73;14.32;;;19.30;99.90;;;;;;3601575;39;20350;-82
2021/07/01 10:03:18;;;;;;;17.35;14.18;;;19.50;99.90;;;;;;3602988;39;20045;-81
2021/07/01 10:05:44;;;;;;;20.27;14.98;;;19.60;99.90;;;;;;3601554;39;20430;-82
2021/07/01 10:08:10;;;;;;;17.73;15.63;;;19.70;99.90;;;;;;3604263;39;20146;-81
2021/07/01 10:10:43;;;;;;;19.83;14.02;;;19.70;99.90;;;;;;3603206;39;20124;-82
2021/07/01 10:13:11;;;;;;;20.58;14.52;;;19.70;99.90;;;;;;3604986;39;20108;-82
2021/07/01 10:15:39;;;;;;;16.98;13.35;;;19.70;99.90;;;;;;3605147;39;20048;-80
2021/07/01 10:18:07;;;;;;;17.13;13.63;;;19.70;99.90;;;;;;3599143;39;20062;-81
2021/07/01 10:20:46;;;;;;;19.40;14.02;;;19.80;99.90;;;;;;3605443;39;20181;-81
2021/07/01 10:23:19;;;;;;;19.55;14.35;;;19.80;99.90;;;;;;3596999;39;20287;-81
2021/07/01 10:25:46;;;;;;;16.55;13.38;;;19.90;99.90;;;;;;3603169;39;20499;-82
2021/07/01 10:28:15;;;;;;;17.35;13.70;;;20.00;99.90;;;;;;3604370;39;20132;-80
2021/07/01 10:30:42;;;;;;;19.33;14.35;;;20.00;99.90;;;;;;3601724;39;20073;-82
2021/07/01 10:33:28;;;;;;;20.50;15.55;;;20.30;99.90;;;;;;3602760;39;20043;-82
2021/07/01 10:35:57;;;;;;;17.38;14.80;;;20.50;99.90;;;;;;3603000;39;20046;-81
2021/07/01 10:38:23;;;;;;;17.67;14.55;;;20.70;99.90;;;;;;3601869;39;20068;-81
2021/07/01 10:40:52;;;;;;;18.42;14.55;;;20.80;99.90;;;;;;3602696;39;20040;-81
2021/07/01 10:43:19;;;;;;;20.42;14.35;;;20.80;99.90;;;;;;3605743;39;20051;-80
2021/07/01 10:45:58;;;;;;;17.25;14.07;;;20.90;99.90;;;;;;3603286;39;20051;-80
2021/07/01 10:48:26;;;;;;;18.73;11.85;;;21.00;99.90;;;;;;3599651;39;20601;-80
2021/07/01 10:50:53;;;;;;;15.93;12.07;;;21.00;99.90;;;;;;3607418;39;20052;-81
2021/07/01 10:53:27;;;;;;;19.23;12.80;;;20.90;99.90;;;;;;3606770;39;20067;-80
2021/07/01 10:56:10;;;;;;;16.02;12.68;;;20.90;99.90;;;;;;3598808;39;20125;-82
2021/07/01 10:58:37;;;;;;;16.80;11.93;;;21.00;99.90;;;;;;3601035;39;20152;-83
2021/07/01 11:01:05;;;;;;;16.27;11.60;;;20.90;99.90;;;;;;3601277;39;20335;-81
2021/07/01 11:03:32;;;;;;;16.45;13.00;;;20.90;99.90;;;;;;3605785;39;20046;-80
2021/07/01 11:06:01;;;;;;;18.20;11.65;;;20.80;99.90;;;;;;3601390;39;20036;-79
2021/07/01 11:08:26;;;;;;;14.20;11.05;;;20.70;99.90;;;;;;3607575;39;20063;-79
2021/07/01 11:10:53;;;;;;;17.90;12.27;;;20.60;99.90;;;;;;3604977;39;20068;-80
2021/07/01 11:13:23;;;;;;;17.80;12.32;;;20.50;99.90;;;;;;3603644;39;20068;-80
2021/07/01 11:16:15;;;;;;;13.82;12.18;;;20.60;99.90;;;;;;3605298;39;20036;-80
2021/07/01 11:18:47;;;;;;;13.60;10.05;;;20.70;99.90;;;;;;3603923;39;20104;-80
2021/07/01 11:21:12;;;;;;;16.17;11.68;;;20.90;99.90;;;;;;3592520;40;20140;-79
2021/07/01 11:23:40;;;;;;;16.25;11.73;;;21.00;99.90;;;;;;3604089;39;20051;-80
2021/07/01 11:26:29;;;;;;;16.23;11.95;;;21.20;99.90;;;;;;3605401;39;20047;-80
2021/07/01 11:28:57;;;;;;;16.80;11.95;;;21.30;99.90;;;;;;3599192;39;20066;-82
2021/07/01 11:31:42;;;;;;;14.90;11.35;;;21.30;99.90;;;;;;3603727;39;20050;-81
2021/07/01 11:34:09;;;;;;;14.88;11.07;;;21.30;99.90;;;;;;3603818;39;20189;-79
2021/07/01 11:36:37;;;;;;;16.70;12.07;;;21.40;99.90;;;;;;3604742;39;20065;-79
2021/07/01 11:39:09;;;;;;;19.27;13.40;;;21.40;99.90;;;;;;3601451;39;20079;-80
2021/07/01 11:41:35;;;;;;;19.38;13.85;;;21.40;99.90;;;;;;3605427;39;20050;-80
2021/07/01 11:44:02;;;;;;;13.07;11.68;;;21.50;99.90;;;;;;3605379;39;20043;-80
2021/07/01 11:46:29;;;;;;;13.02;11.70;;;21.70;99.90;;;;;;3605600;39;20047;-80
2021/07/01 11:48:58;;;;;;;15.88;11.50;;;21.90;99.90;;;;;;3598969;39;20043;-81
2021/07/01 11:51:25;;;;;;;16.23;11.35;;;22.30;99.90;;;;;;3604125;39;20340;-79
2021/07/01 11:53:53;;;;;;;17.27;11.65;;;22.50;99.90;;;;;;3601451;39;20051;-80
2021/07/01 11:56:22;;;;;;;15.27;11.82;;;22.50;99.90;;;;;;3603723;39;20201;-81
2021/07/01 11:58:48;;;;;;;15.98;10.20;;;22.70;99.90;;;;;;3588600;39;20041;-80
2021/07/01 12:01:15;;;;;;;16.63;12.02;;;23.00;99.90;;;;;;3594090;39;20035;-80
2021/07/01 12:03:41;;;;;;;15.18;11.68;;;23.10;99.90;;;;;;3601790;39;20075;-80
2021/07/01 12:06:33;;;;;;;14.52;11.00;;;23.00;99.90;;;;;;3600052;39;20035;-81
2021/07/01 12:08:59;;;;;;;15.18;10.48;;;23.00;99.90;;;;;;3602535;39;20073;-80
2021/07/01 12:11:25;;;;;;;15.95;10.65;;;22.90;99.90;;;;;;3605634;39;20227;-81
2021/07/01 12:13:51;;;;;;;17.90;10.98;;;22.90;99.90;;;;;;3596950;39;20073;-80
2021/07/01 12:16:18;;;;;;;16.88;11.52;;;22.90;99.90;;;;;;3593946;39;20071;-80
2021/07/01 12:18:57;;;;;;;15.30;10.98;;;22.90;99.80;;;;;;3600006;39;20045;-79
2021/07/01 12:21:29;;;;;;;13.40;9.95;;;22.90;97.60;;;;;;3597612;39;20149;-81
2021/07/01 12:24:12;;;;;;;12.77;10.30;;;23.00;98.30;;;;;;3602282;39;20039;-80
2021/07/01 12:26:44;;;;;;;14.75;10.30;;;22.90;96.30;;;;;;3597911;39;20519;-79
2021/07/01 12:29:40;;;;;;;11.70;10.10;;;22.80;98.90;;;;;;3604088;39;20038;-79
2021/07/01 12:32:28;;;;;;;15.88;11.48;;;22.80;98.70;;;;;;3600693;39;20052;-80